createdAt,value
2019-03-31T00:00:38.181Z,97687.50
2019-03-31T00:01:43.510Z,97679.23
2019-03-31T00:02:47.138Z,97678.41
2019-03-31T00:03:50.980Z,97679.01
2019-03-31T00:04:54.614Z,97678.92
2019-03-31T00:05:58.610Z,97679.41
2019-03-31T00:07:02.215Z,97681.51
2019-03-31T00:08:05.852Z,97683.02
2019-03-31T00:09:09.479Z,97678.41
2019-03-31T00:10:13.115Z,97680.43
2019-03-31T00:11:16.827Z,97678.61
2019-03-31T00:12:20.483Z,97680.00
2019-03-31T00:13:24.116Z,97688.75
2019-03-31T00:14:27.845Z,97684.80
2019-03-31T00:15:31.460Z,97684.27
2019-03-31T00:16:35.036Z,97680.11
2019-03-31T00:17:38.709Z,97679.66
2019-03-31T00:18:42.352Z,97678.16
2019-03-31T00:19:45.983Z,97677.93
2019-03-31T00:20:50.004Z,97677.13
2019-03-31T00:21:53.632Z,97677.59
2019-03-31T00:22:57.302Z,97678.33
2019-03-31T00:24:00.935Z,97675.86
2019-03-31T00:25:06.351Z,97675.09
2019-03-31T00:26:09.987Z,97676.91
2019-03-31T00:27:13.619Z,97675.09
2019-03-31T00:28:17.423Z,97669.78
2019-03-31T00:29:21.123Z,97677.13
2019-03-31T00:30:25.278Z,97668.50
2019-03-31T00:31:28.835Z,97670.23
2019-03-31T00:32:32.785Z,97672.90
2019-03-31T00:33:36.419Z,97670.91
2019-03-31T00:34:40.143Z,97666.98
2019-03-31T00:35:43.998Z,97665.94
2019-03-31T00:36:48.026Z,97664.83
2019-03-31T00:37:51.658Z,97664.98
2019-03-31T00:38:55.509Z,97668.36
2019-03-31T00:39:59.144Z,97667.00
2019-03-31T00:41:02.807Z,97661.85
2019-03-31T00:42:06.455Z,97664.73
2019-03-31T00:43:10.078Z,97660.73
2019-03-31T00:44:13.724Z,97665.81
2019-03-31T00:45:17.348Z,97664.20
2019-03-31T00:46:21.009Z,97656.73
2019-03-31T00:47:24.629Z,97660.27
2019-03-31T00:48:28.267Z,97661.37
2019-03-31T00:49:31.821Z,97657.02
2019-03-31T00:50:35.441Z,97660.22
2019-03-31T00:51:39.037Z,97664.66
2019-03-31T00:52:42.677Z,97660.52
2019-03-31T00:53:46.778Z,97655.97
2019-03-31T00:54:50.410Z,97660.86
2019-03-31T00:55:53.973Z,97662.70
2019-03-31T00:56:57.637Z,97659.86
2019-03-31T00:58:01.696Z,97662.52
2019-03-31T00:59:05.407Z,97661.77
2019-03-31T01:00:11.386Z,97651.95
2019-03-31T01:01:20.234Z,97654.55
2019-03-31T01:02:25.546Z,97653.78
2019-03-31T01:03:29.342Z,97662.04
2019-03-31T01:04:33.230Z,97661.20
2019-03-31T01:05:39.042Z,97655.02
2019-03-31T01:06:42.833Z,97655.04
2019-03-31T01:07:47.002Z,97655.16
2019-03-31T01:08:50.634Z,97654.86
2019-03-31T01:09:56.930Z,97659.96
2019-03-31T01:11:03.682Z,97659.66
2019-03-31T01:12:07.430Z,97653.94
2019-03-31T01:13:13.474Z,97656.86
2019-03-31T01:14:17.471Z,97653.11
2019-03-31T01:15:24.352Z,97648.86
2019-03-31T01:16:29.887Z,97647.88
2019-03-31T01:17:33.717Z,97650.34
2019-03-31T01:18:37.474Z,97654.22
2019-03-31T01:19:41.290Z,97653.96
2019-03-31T01:20:45.127Z,97646.67
2019-03-31T01:21:48.763Z,97649.27
2019-03-31T01:22:52.398Z,97640.60
2019-03-31T01:23:56.031Z,97636.06
2019-03-31T01:24:59.662Z,97643.45
2019-03-31T01:26:03.924Z,97638.73
2019-03-31T01:27:10.117Z,97644.23
2019-03-31T01:28:13.832Z,97641.03
2019-03-31T01:29:18.718Z,97645.56
2019-03-31T01:30:23.327Z,97639.67
2019-03-31T01:31:28.544Z,97639.60
2019-03-31T01:32:32.282Z,97641.39
2019-03-31T01:33:35.913Z,97643.08
2019-03-31T01:34:39.620Z,97639.67
2019-03-31T01:35:43.604Z,97642.23
2019-03-31T01:36:47.358Z,97643.04
2019-03-31T01:37:51.193Z,97638.37
2019-03-31T01:38:54.985Z,97644.56
2019-03-31T01:39:58.613Z,97642.39
2019-03-31T01:41:02.245Z,97642.72
2019-03-31T01:42:06.453Z,97643.25
2019-03-31T01:43:10.174Z,97646.05
2019-03-31T01:44:13.737Z,97641.05
2019-03-31T01:45:17.434Z,97640.83
2019-03-31T01:46:22.437Z,97635.24
2019-03-31T01:47:26.104Z,97640.30
2019-03-31T01:48:29.744Z,97641.11
2019-03-31T01:49:33.445Z,97641.30
2019-03-31T01:50:37.236Z,97642.12
2019-03-31T01:51:40.849Z,97641.69
2019-03-31T01:52:44.520Z,97634.11
2019-03-31T01:53:48.157Z,97636.03
2019-03-31T01:54:51.793Z,97635.23
2019-03-31T01:55:55.416Z,97637.09
2019-03-31T01:56:59.119Z,97641.30
2019-03-31T01:58:02.937Z,97637.30
2019-03-31T01:59:06.567Z,97643.31
2019-03-31T02:00:12.541Z,97639.52
2019-03-31T02:01:17.643Z,97635.24
2019-03-31T02:02:23.426Z,97637.63
2019-03-31T02:03:27.075Z,97636.03
2019-03-31T02:04:30.705Z,97635.03
2019-03-31T02:05:34.403Z,97638.16
2019-03-31T02:06:38.037Z,97633.38
2019-03-31T02:07:41.734Z,97629.83
2019-03-31T02:08:45.338Z,97634.36
2019-03-31T02:09:48.970Z,97629.64
2019-03-31T02:10:53.000Z,97632.55
2019-03-31T02:11:56.664Z,97633.58
2019-03-31T02:13:00.291Z,97622.17
2019-03-31T02:14:04.009Z,97626.97
2019-03-31T02:15:08.263Z,97630.12
2019-03-31T02:16:11.889Z,97625.84
2019-03-31T02:17:15.619Z,97623.40
2019-03-31T02:18:19.260Z,97622.91
2019-03-31T02:19:22.928Z,97624.78
2019-03-31T02:20:26.581Z,97622.86
2019-03-31T02:21:30.220Z,97628.05
2019-03-31T02:22:33.883Z,97629.64
2019-03-31T02:23:38.603Z,97628.84
2019-03-31T02:24:42.231Z,97628.37
2019-03-31T02:25:45.981Z,97626.27
2019-03-31T02:26:49.636Z,97629.19
2019-03-31T02:27:53.982Z,97624.67
2019-03-31T02:28:57.617Z,97630.25
2019-03-31T02:30:01.265Z,97625.10
2019-03-31T02:31:04.933Z,97625.31
2019-03-31T02:32:22.490Z,97621.64
2019-03-31T02:33:13.925Z,97621.94
2019-03-31T02:34:17.490Z,97623.79
2019-03-31T02:35:21.107Z,97623.72
2019-03-31T02:36:24.779Z,97627.91
2019-03-31T02:37:28.410Z,97630.06
2019-03-31T02:38:32.051Z,97627.66
2019-03-31T02:39:35.674Z,97622.12
2019-03-31T02:40:39.687Z,97622.30
2019-03-31T02:41:43.370Z,97623.94
2019-03-31T02:42:46.995Z,97621.98
2019-03-31T02:43:50.627Z,97624.73
2019-03-31T02:44:54.259Z,97628.11
2019-03-31T02:45:57.974Z,97624.44
2019-03-31T02:47:01.647Z,97625.83
2019-03-31T02:48:05.563Z,97624.63
2019-03-31T02:49:09.202Z,97625.70
2019-03-31T02:50:15.741Z,97618.39
2019-03-31T02:51:19.371Z,97616.85
2019-03-31T02:52:23.044Z,97620.63
2019-03-31T02:53:26.675Z,97621.16
2019-03-31T02:54:30.629Z,97615.05
2019-03-31T02:55:34.350Z,97616.44
2019-03-31T02:56:38.983Z,97612.59
2019-03-31T02:57:44.061Z,97611.80
2019-03-31T02:58:47.807Z,97615.42
2019-03-31T02:59:51.944Z,97615.16
2019-03-31T03:00:56.091Z,97611.60
2019-03-31T03:02:01.259Z,97610.52
2019-03-31T03:03:04.930Z,97613.47
2019-03-31T03:04:09.664Z,97613.45
2019-03-31T03:05:19.683Z,97605.86
2019-03-31T03:06:22.038Z,97612.62
2019-03-31T03:07:27.018Z,97611.08
2019-03-31T03:08:33.228Z,97609.00
2019-03-31T03:09:37.248Z,97622.05
2019-03-31T03:10:43.388Z,97613.75
2019-03-31T03:11:48.909Z,97610.77
2019-03-31T03:12:53.888Z,97617.73
2019-03-31T03:13:59.630Z,97616.59
2019-03-31T03:15:05.516Z,97621.64
2019-03-31T03:16:17.506Z,97626.09
2019-03-31T03:17:21.140Z,97620.49
2019-03-31T03:18:24.756Z,97619.22
2019-03-31T03:19:28.425Z,97616.07
2019-03-31T03:20:32.060Z,97615.31
2019-03-31T03:21:35.700Z,97620.86
2019-03-31T03:22:39.325Z,97621.86
2019-03-31T03:23:42.969Z,97621.18
2019-03-31T03:24:46.562Z,97617.23
2019-03-31T03:25:56.549Z,97618.47
2019-03-31T03:26:55.540Z,97620.38
2019-03-31T03:27:59.179Z,97625.44
2019-03-31T03:29:02.817Z,97620.11
2019-03-31T03:30:07.701Z,97616.13
2019-03-31T03:31:15.915Z,97618.83
2019-03-31T03:32:16.655Z,97624.23
2019-03-31T03:33:20.434Z,97625.13
2019-03-31T03:34:24.258Z,97625.05
2019-03-31T03:35:27.939Z,97626.54
2019-03-31T03:36:31.574Z,97624.90
2019-03-31T03:37:35.197Z,97626.27
2019-03-31T03:38:38.834Z,97627.03
2019-03-31T03:39:42.468Z,97622.28
2019-03-31T03:40:46.133Z,97630.09
2019-03-31T03:41:49.720Z,97628.19
2019-03-31T03:42:53.318Z,97631.64
2019-03-31T03:44:01.975Z,97633.02
2019-03-31T03:45:02.315Z,97631.33
2019-03-31T03:46:06.051Z,97639.00
2019-03-31T03:47:09.676Z,97619.90
2019-03-31T03:48:13.232Z,97625.27
2019-03-31T03:49:17.018Z,97624.41
2019-03-31T03:50:20.908Z,97628.34
2019-03-31T03:51:24.546Z,97628.89
2019-03-31T03:52:28.175Z,97629.90
2019-03-31T03:53:31.823Z,97631.13
2019-03-31T03:54:35.437Z,97624.72
2019-03-31T03:55:39.078Z,97628.45
2019-03-31T03:56:42.766Z,97625.38
2019-03-31T03:57:46.396Z,97624.77
2019-03-31T03:58:50.036Z,97626.15
2019-03-31T03:59:53.679Z,97629.12
2019-03-31T04:00:57.305Z,97622.17
2019-03-31T04:02:00.978Z,97631.43
2019-03-31T04:03:04.617Z,97623.75
2019-03-31T04:04:08.248Z,97626.91
2019-03-31T04:05:11.900Z,97628.19
2019-03-31T04:06:15.532Z,97629.56
2019-03-31T04:07:19.227Z,97628.45
2019-03-31T04:08:22.839Z,97627.92
2019-03-31T04:09:26.465Z,97630.63
2019-03-31T04:10:45.406Z,97624.65
2019-03-31T04:11:48.960Z,97631.11
2019-03-31T04:12:52.659Z,97627.61
2019-03-31T04:13:56.773Z,97620.75
2019-03-31T04:15:00.602Z,97629.37
2019-03-31T04:16:04.315Z,97619.84
2019-03-31T04:17:07.941Z,97627.52
2019-03-31T04:18:11.604Z,97624.40
2019-03-31T04:19:15.168Z,97622.77
2019-03-31T04:20:18.819Z,97628.92
2019-03-31T04:21:22.430Z,97632.08
2019-03-31T04:22:26.070Z,97635.52
2019-03-31T04:23:29.666Z,97630.44
2019-03-31T04:24:34.192Z,97629.37
2019-03-31T04:25:37.720Z,97627.81
2019-03-31T04:26:41.691Z,97624.59
2019-03-31T04:27:45.328Z,97632.60
2019-03-31T04:28:48.997Z,97633.51
2019-03-31T04:29:52.628Z,97634.84
2019-03-31T04:30:56.269Z,97635.33
2019-03-31T04:31:59.901Z,97635.59
2019-03-31T04:33:03.524Z,97637.76
2019-03-31T04:34:07.251Z,97639.13
2019-03-31T04:35:10.991Z,97643.64
2019-03-31T04:36:14.607Z,97645.73
2019-03-31T04:37:18.243Z,97644.44
2019-03-31T04:38:21.817Z,97645.23
2019-03-31T04:39:25.470Z,97649.69
2019-03-31T04:40:29.108Z,97651.02
2019-03-31T04:41:32.820Z,97656.06
2019-03-31T04:42:36.380Z,97654.23
2019-03-31T04:43:40.011Z,97654.17
2019-03-31T04:44:43.684Z,97653.83
2019-03-31T04:45:47.326Z,97652.46
2019-03-31T04:46:50.948Z,97651.06
2019-03-31T04:47:54.594Z,97649.42
2019-03-31T04:48:58.150Z,97655.80
2019-03-31T04:50:01.826Z,97656.30
2019-03-31T04:51:05.757Z,97656.52
2019-03-31T04:52:09.391Z,97650.89
2019-03-31T04:53:12.954Z,97656.44
2019-03-31T04:54:16.589Z,97650.89
2019-03-31T04:55:20.262Z,97650.09
2019-03-31T04:56:23.898Z,97649.78
2019-03-31T04:57:27.533Z,97648.41
2019-03-31T04:58:31.169Z,97646.77
2019-03-31T04:59:34.827Z,97644.89
2019-03-31T05:00:38.616Z,97644.32
2019-03-31T05:01:42.454Z,97648.44
2019-03-31T05:02:46.022Z,97648.22
2019-03-31T05:04:03.402Z,97647.03
2019-03-31T05:04:55.005Z,97651.09
2019-03-31T05:05:58.671Z,97655.16
2019-03-31T05:07:02.296Z,97653.60
2019-03-31T05:08:06.856Z,97651.58
2019-03-31T05:09:10.427Z,97648.66
2019-03-31T05:10:14.187Z,97647.82
2019-03-31T05:11:17.915Z,97643.88
2019-03-31T05:12:21.556Z,97637.29
2019-03-31T05:13:25.564Z,97641.05
2019-03-31T05:14:29.200Z,97636.79
2019-03-31T05:15:32.912Z,97640.22
2019-03-31T05:16:36.582Z,97641.58
2019-03-31T05:17:40.232Z,97640.52
2019-03-31T05:18:43.867Z,97635.94
2019-03-31T05:19:47.507Z,97632.94
2019-03-31T05:20:51.149Z,97636.36
2019-03-31T05:21:54.831Z,97633.24
2019-03-31T05:23:12.199Z,97640.72
2019-03-31T05:24:15.845Z,97638.48
2019-03-31T05:25:19.497Z,97635.94
2019-03-31T05:26:23.256Z,97635.78
2019-03-31T05:27:26.976Z,97643.84
2019-03-31T05:28:30.761Z,97642.52
2019-03-31T05:29:35.837Z,97641.72
2019-03-31T05:30:39.562Z,97642.83
2019-03-31T05:31:44.544Z,97642.58
2019-03-31T05:33:09.358Z,97642.55
2019-03-31T05:34:19.346Z,97644.95
2019-03-31T05:35:18.378Z,97636.98
2019-03-31T05:36:22.023Z,97646.25
2019-03-31T05:37:25.663Z,97640.98
2019-03-31T05:38:29.494Z,97644.17
2019-03-31T05:39:33.159Z,97639.66
2019-03-31T05:40:36.809Z,97640.98
2019-03-31T05:41:40.696Z,97637.80
2019-03-31T05:42:45.860Z,97636.98
2019-03-31T05:43:49.512Z,97639.13
2019-03-31T05:44:53.145Z,97635.92
2019-03-31T05:45:57.086Z,97637.51
2019-03-31T05:47:00.767Z,97638.09
2019-03-31T05:48:04.479Z,97635.14
2019-03-31T05:49:08.434Z,97637.75
2019-03-31T05:50:12.368Z,97642.00
2019-03-31T05:51:16.090Z,97640.44
2019-03-31T05:52:19.782Z,97633.53
2019-03-31T05:53:23.461Z,97639.06
2019-03-31T05:54:27.523Z,97637.38
2019-03-31T05:55:31.156Z,97630.42
2019-03-31T05:56:34.793Z,97635.70
2019-03-31T05:57:38.443Z,97635.40
2019-03-31T05:58:42.759Z,97629.82
2019-03-31T05:59:46.479Z,97634.77
2019-03-31T06:00:50.404Z,97635.52
2019-03-31T06:01:55.806Z,97630.74
2019-03-31T06:02:59.518Z,97634.42
2019-03-31T06:04:03.450Z,97635.63
2019-03-31T06:05:07.489Z,97639.59
2019-03-31T06:06:11.123Z,97634.27
2019-03-31T06:07:14.722Z,97629.97
2019-03-31T06:08:18.355Z,97628.64
2019-03-31T06:09:22.196Z,97627.58
2019-03-31T06:10:32.040Z,97626.50
2019-03-31T06:11:35.603Z,97631.52
2019-03-31T06:12:39.169Z,97640.73
2019-03-31T06:13:43.178Z,97635.01
2019-03-31T06:14:46.847Z,97634.42
2019-03-31T06:15:50.549Z,97635.77
2019-03-31T06:16:54.191Z,97630.17
2019-03-31T06:17:57.825Z,97631.55
2019-03-31T06:19:01.453Z,97626.40
2019-03-31T06:20:06.529Z,97631.98
2019-03-31T06:21:10.160Z,97634.91
2019-03-31T06:22:13.811Z,97630.79
2019-03-31T06:23:17.455Z,97627.68
2019-03-31T06:24:21.088Z,97625.50
2019-03-31T06:25:24.760Z,97625.30
2019-03-31T06:26:28.332Z,97624.12
2019-03-31T06:27:37.823Z,97620.99
2019-03-31T06:28:41.464Z,97623.27
2019-03-31T06:29:45.108Z,97623.70
2019-03-31T06:30:50.257Z,97629.13
2019-03-31T06:31:53.883Z,97626.05
2019-03-31T06:32:58.988Z,97623.66
2019-03-31T06:34:02.750Z,97615.08
2019-03-31T06:35:06.698Z,97612.46
2019-03-31T06:36:13.121Z,97608.23
2019-03-31T06:37:16.722Z,97611.86
2019-03-31T06:38:20.447Z,97611.62
2019-03-31T06:39:24.028Z,97604.00
2019-03-31T06:40:28.055Z,97603.86
2019-03-31T06:41:31.632Z,97605.62
2019-03-31T06:42:35.257Z,97601.08
2019-03-31T06:43:38.858Z,97609.95
2019-03-31T06:44:42.499Z,97597.36
2019-03-31T06:45:46.137Z,97599.21
2019-03-31T06:46:49.768Z,97597.34
2019-03-31T06:47:53.326Z,97598.06
2019-03-31T06:48:57.330Z,97598.35
2019-03-31T06:50:00.960Z,97591.91
2019-03-31T06:51:04.599Z,97595.11
2019-03-31T06:52:08.233Z,97596.38
2019-03-31T06:53:12.174Z,97591.21
2019-03-31T06:54:15.844Z,97592.67
2019-03-31T06:55:19.493Z,97591.25
2019-03-31T06:56:23.172Z,97586.55
2019-03-31T06:57:26.911Z,97593.48
2019-03-31T06:58:30.553Z,97596.85
2019-03-31T06:59:34.203Z,97586.48
2019-03-31T07:00:37.895Z,97589.03
2019-03-31T07:01:42.726Z,97583.20
2019-03-31T07:02:46.290Z,97590.10
2019-03-31T07:03:49.939Z,97588.66
2019-03-31T07:05:00.886Z,97587.02
2019-03-31T07:05:58.937Z,97585.92
2019-03-31T07:07:02.633Z,97579.58
2019-03-31T07:08:06.271Z,97581.02
2019-03-31T07:09:09.910Z,97578.28
2019-03-31T07:10:13.561Z,97570.92
2019-03-31T07:11:17.549Z,97570.92
2019-03-31T07:12:21.185Z,97570.57
2019-03-31T07:13:24.830Z,97566.30
2019-03-31T07:14:28.471Z,97566.30
2019-03-31T07:15:32.203Z,97564.17
2019-03-31T07:16:36.160Z,97563.63
2019-03-31T07:17:39.795Z,97560.42
2019-03-31T07:18:43.442Z,97554.52
2019-03-31T07:19:47.085Z,97554.07
2019-03-31T07:20:51.274Z,97554.07
2019-03-31T07:21:54.903Z,97549.21
2019-03-31T07:22:58.568Z,97551.80
2019-03-31T07:24:02.207Z,97548.88
2019-03-31T07:25:08.161Z,97552.89
2019-03-31T07:26:11.843Z,97550.95
2019-03-31T07:27:17.146Z,97552.49
2019-03-31T07:28:20.790Z,97545.31
2019-03-31T07:29:24.423Z,97549.38
2019-03-31T07:30:27.996Z,97544.22
2019-03-31T07:31:31.657Z,97547.47
2019-03-31T07:32:35.298Z,97541.96
2019-03-31T07:33:38.868Z,97542.20
2019-03-31T07:34:42.511Z,97536.80
2019-03-31T07:35:46.161Z,97541.25
2019-03-31T07:36:49.822Z,97533.08
2019-03-31T07:37:53.453Z,97533.08
2019-03-31T07:38:57.419Z,97532.56
2019-03-31T07:40:01.537Z,97529.63
2019-03-31T07:41:12.618Z,97529.63
2019-03-31T07:42:10.957Z,97527.26
2019-03-31T07:43:14.715Z,97524.08
2019-03-31T07:44:18.568Z,97513.84
2019-03-31T07:45:22.296Z,97517.09
2019-03-31T07:46:25.930Z,97518.69
2019-03-31T07:47:30.847Z,97509.61
2019-03-31T07:48:34.500Z,97511.06
2019-03-31T07:49:38.191Z,97507.86
2019-03-31T07:50:41.910Z,97503.19
2019-03-31T07:51:45.555Z,97502.16
2019-03-31T07:52:49.238Z,97501.31
2019-03-31T07:53:52.881Z,97504.67
2019-03-31T07:54:56.529Z,97497.44
2019-03-31T07:56:00.185Z,97502.54
2019-03-31T07:57:06.813Z,97499.23
2019-03-31T07:58:09.267Z,97500.37
2019-03-31T07:59:12.991Z,97491.89
2019-03-31T08:00:21.899Z,97500.66
2019-03-31T08:01:25.508Z,97494.31
2019-03-31T08:02:29.218Z,97494.34
2019-03-31T08:03:32.893Z,97492.77
2019-03-31T08:04:36.538Z,97484.20
2019-03-31T08:05:40.186Z,97489.81
2019-03-31T08:06:43.842Z,97487.17
2019-03-31T08:07:47.482Z,97478.76
2019-03-31T08:08:53.378Z,97478.87
2019-03-31T08:09:56.523Z,97481.89
2019-03-31T08:11:00.509Z,97474.33
2019-03-31T08:12:04.150Z,97473.33
2019-03-31T08:13:07.800Z,97466.95
2019-03-31T08:14:11.469Z,97470.94
2019-03-31T08:15:15.314Z,97467.34
2019-03-31T08:16:18.948Z,97459.50
2019-03-31T08:17:22.587Z,97461.36
2019-03-31T08:18:26.228Z,97457.69
2019-03-31T08:19:29.905Z,97452.55
2019-03-31T08:20:33.541Z,97450.03
2019-03-31T08:21:37.183Z,97447.61
2019-03-31T08:22:41.174Z,97451.09
2019-03-31T08:23:44.815Z,97456.17
2019-03-31T08:24:48.415Z,97448.86
2019-03-31T08:25:52.080Z,97447.71
2019-03-31T08:26:55.969Z,97439.05
2019-03-31T08:27:59.521Z,97441.41
2019-03-31T08:29:03.241Z,97442.97
2019-03-31T08:30:10.370Z,97441.59
2019-03-31T08:31:14.014Z,97440.62
2019-03-31T08:32:17.690Z,97435.72
2019-03-31T08:33:21.317Z,97429.11
2019-03-31T08:34:24.985Z,97426.57
2019-03-31T08:35:28.616Z,97432.59
2019-03-31T08:36:35.196Z,97430.90
2019-03-31T08:37:37.571Z,97427.03
2019-03-31T08:38:41.204Z,97421.48
2019-03-31T08:39:44.844Z,97424.66
2019-03-31T08:40:48.476Z,97411.66
2019-03-31T08:41:51.981Z,97413.06
2019-03-31T08:42:55.588Z,97415.11
2019-03-31T08:43:59.218Z,97413.34
2019-03-31T08:45:02.851Z,97411.05
2019-03-31T08:46:06.486Z,97410.81
2019-03-31T08:47:10.693Z,97412.92
2019-03-31T08:48:14.373Z,97404.24
2019-03-31T08:49:18.009Z,97399.52
2019-03-31T08:50:21.636Z,97397.55
2019-03-31T08:51:25.666Z,97402.05
2019-03-31T08:52:29.303Z,97393.75
2019-03-31T08:53:32.971Z,97385.18
2019-03-31T08:54:36.920Z,97386.89
2019-03-31T08:55:40.572Z,97389.06
2019-03-31T08:56:44.207Z,97393.58
2019-03-31T08:57:47.847Z,97391.78
2019-03-31T08:58:51.452Z,97390.81
2019-03-31T08:59:55.075Z,97389.00
2019-03-31T09:02:24.765Z,97383.78
2019-03-31T09:03:28.398Z,97379.36
2019-03-31T09:04:32.307Z,97377.82
2019-03-31T09:05:35.943Z,97384.51
2019-03-31T09:06:39.576Z,97380.70
2019-03-31T09:07:43.130Z,97379.59
2019-03-31T09:08:46.774Z,97381.30
2019-03-31T09:09:50.440Z,97389.75
2019-03-31T09:10:54.006Z,97372.50
2019-03-31T09:11:57.644Z,97370.46
2019-03-31T09:13:01.234Z,97363.39
2019-03-31T09:14:05.383Z,97367.11
2019-03-31T09:15:11.809Z,97364.25
2019-03-31T09:16:15.444Z,97363.13
2019-03-31T09:17:19.076Z,97363.21
2019-03-31T09:18:22.716Z,97359.61
2019-03-31T09:19:26.332Z,97353.44
2019-03-31T09:20:29.979Z,97365.17
2019-03-31T09:21:33.694Z,97357.89
2019-03-31T09:22:37.422Z,97353.55
2019-03-31T09:23:41.056Z,97349.80
2019-03-31T09:24:46.927Z,97348.14
2019-03-31T09:25:50.595Z,97351.23
2019-03-31T09:26:54.153Z,97343.55
2019-03-31T09:27:57.804Z,97346.73
2019-03-31T09:29:01.441Z,97341.91
2019-03-31T09:30:10.752Z,97346.22
2019-03-31T09:31:14.487Z,97339.98
2019-03-31T09:32:18.120Z,97339.03
2019-03-31T09:33:21.756Z,97332.39
2019-03-31T09:34:25.389Z,97333.66
2019-03-31T09:35:29.018Z,97334.88
2019-03-31T09:36:32.608Z,97324.39
2019-03-31T09:37:36.240Z,97322.47
2019-03-31T09:38:39.876Z,97320.48
2019-03-31T09:39:43.533Z,97313.62
2019-03-31T09:40:47.215Z,97311.44
2019-03-31T09:41:50.884Z,97314.77
2019-03-31T09:42:54.516Z,97311.37
2019-03-31T09:43:58.140Z,97314.34
2019-03-31T09:45:01.774Z,97307.16
2019-03-31T09:46:05.410Z,97303.62
2019-03-31T09:47:09.164Z,97305.86
2019-03-31T09:48:12.786Z,97302.84
2019-03-31T09:49:16.453Z,97296.91
2019-03-31T09:50:20.340Z,97297.05
2019-03-31T09:51:23.936Z,97298.65
2019-03-31T09:52:31.376Z,97293.23
2019-03-31T09:53:34.391Z,97297.17
2019-03-31T09:54:38.023Z,97294.41
2019-03-31T09:55:41.658Z,97298.70
2019-03-31T09:56:45.295Z,97289.73
2019-03-31T09:57:48.884Z,97290.81
2019-03-31T09:58:52.580Z,97287.95
2019-03-31T09:59:57.853Z,97292.46
2019-03-31T10:01:08.055Z,97282.01
2019-03-31T10:02:14.598Z,97279.84
2019-03-31T10:03:18.768Z,97279.42
2019-03-31T10:04:22.549Z,97281.01
2019-03-31T10:05:27.904Z,97274.20
2019-03-31T10:06:48.457Z,97270.98
2019-03-31T10:07:52.345Z,97271.45
2019-03-31T10:08:56.116Z,97263.13
2019-03-31T10:10:00.685Z,97261.97
2019-03-31T10:11:14.895Z,97258.11
2019-03-31T10:12:18.519Z,97254.27
2019-03-31T10:13:22.277Z,97253.34
2019-03-31T10:14:26.017Z,97251.03
2019-03-31T10:15:30.229Z,97253.20
2019-03-31T10:16:33.881Z,97245.19
2019-03-31T10:17:37.503Z,97249.96
2019-03-31T10:18:41.517Z,97244.55
2019-03-31T10:19:45.122Z,97241.46
2019-03-31T10:20:48.760Z,97242.52
2019-03-31T10:21:52.326Z,97237.48
2019-03-31T10:22:56.140Z,97233.17
2019-03-31T10:23:59.707Z,97233.72
2019-03-31T10:25:07.114Z,97224.19
2019-03-31T10:26:31.133Z,97232.33
2019-03-31T10:27:22.319Z,97226.22
2019-03-31T10:28:25.944Z,97221.93
2019-03-31T10:29:29.577Z,97222.55
2019-03-31T10:30:42.764Z,97222.67
2019-03-31T10:31:50.786Z,97217.30
2019-03-31T10:32:54.419Z,97218.19
2019-03-31T10:33:58.051Z,97219.31
2019-03-31T10:35:01.687Z,97218.13
2019-03-31T10:36:05.427Z,97211.30
2019-03-31T10:37:09.066Z,97213.55
2019-03-31T10:38:12.744Z,97206.36
2019-03-31T10:39:16.437Z,97203.87
2019-03-31T10:40:21.587Z,97204.19
2019-03-31T10:41:25.412Z,97206.59
2019-03-31T10:42:29.060Z,97209.92
2019-03-31T10:43:32.705Z,97209.25
2019-03-31T10:44:37.924Z,97204.05
2019-03-31T10:45:41.688Z,97205.77
2019-03-31T10:46:49.413Z,97199.45
2019-03-31T10:47:53.072Z,97192.82
2019-03-31T10:48:56.794Z,97199.41
2019-03-31T10:50:00.415Z,97195.18
2019-03-31T10:51:04.147Z,97191.58
2019-03-31T10:52:07.781Z,97189.19
2019-03-31T10:53:14.528Z,97184.39
2019-03-31T10:54:18.364Z,97175.94
2019-03-31T10:55:21.999Z,97177.25
2019-03-31T10:56:25.641Z,97173.95
2019-03-31T10:57:29.270Z,97170.74
2019-03-31T10:58:32.924Z,97172.63
2019-03-31T10:59:36.607Z,97172.59
2019-03-31T11:00:44.554Z,97165.39
2019-03-31T11:01:47.713Z,97165.19
2019-03-31T11:02:52.818Z,97156.55
2019-03-31T11:03:56.536Z,97160.86
2019-03-31T11:05:00.370Z,97153.54
2019-03-31T11:06:04.018Z,97149.08
2019-03-31T11:07:07.670Z,97154.59
2019-03-31T11:08:11.304Z,97147.67
2019-03-31T11:09:14.894Z,97149.36
2019-03-31T11:10:21.318Z,97152.11
2019-03-31T11:11:24.939Z,97147.44
2019-03-31T11:12:28.636Z,97143.91
2019-03-31T11:13:33.145Z,97143.00
2019-03-31T11:14:36.792Z,97136.51
2019-03-31T11:15:44.913Z,97134.27
2019-03-31T11:16:50.134Z,97129.72
2019-03-31T11:17:53.756Z,97126.20
2019-03-31T11:18:57.406Z,97123.70
2019-03-31T11:20:01.451Z,97113.53
2019-03-31T11:21:08.386Z,97107.97
2019-03-31T11:22:13.681Z,97107.76
2019-03-31T11:23:21.805Z,97105.88
2019-03-31T11:24:25.463Z,97117.73
2019-03-31T11:25:30.057Z,97106.45
2019-03-31T11:26:36.817Z,97107.02
2019-03-31T11:27:43.730Z,97100.39
2019-03-31T11:28:45.904Z,97096.47
2019-03-31T11:29:49.549Z,97098.66
2019-03-31T11:30:53.355Z,97093.34
2019-03-31T11:31:56.971Z,97093.60
2019-03-31T11:33:02.063Z,97087.15
2019-03-31T11:34:05.774Z,97080.79
2019-03-31T11:35:10.973Z,97072.85
2019-03-31T11:36:14.625Z,97074.41
2019-03-31T11:37:18.317Z,97076.72
2019-03-31T11:38:21.961Z,97077.76
2019-03-31T11:39:25.557Z,97070.20
2019-03-31T11:40:29.206Z,97076.45
2019-03-31T11:41:34.714Z,97070.95
2019-03-31T11:42:40.373Z,97076.09
2019-03-31T11:43:45.761Z,97072.79
2019-03-31T11:44:53.186Z,97069.75
2019-03-31T11:45:56.785Z,97068.57
2019-03-31T11:47:00.527Z,97060.33
2019-03-31T11:48:04.425Z,97059.22
2019-03-31T11:49:08.097Z,97061.53
2019-03-31T11:50:15.401Z,97062.61
2019-03-31T11:51:19.189Z,97059.61
2019-03-31T11:52:22.841Z,97053.86
2019-03-31T11:53:30.662Z,97049.81
2019-03-31T11:54:35.337Z,97051.90
2019-03-31T11:55:38.954Z,97055.38
2019-03-31T11:56:42.605Z,97051.39
2019-03-31T11:57:46.372Z,97051.95
2019-03-31T11:58:51.540Z,97047.41
2019-03-31T11:59:58.217Z,97050.66
2019-03-31T12:01:01.897Z,97045.63
2019-03-31T12:02:07.589Z,97041.47
2019-03-31T12:03:10.919Z,97053.88
2019-03-31T12:04:14.615Z,97047.43
2019-03-31T12:05:18.369Z,97037.84
2019-03-31T12:06:33.543Z,97037.83
2019-03-31T12:07:46.046Z,97038.41
2019-03-31T12:08:38.143Z,97035.27
2019-03-31T12:09:41.843Z,97035.89
2019-03-31T12:10:45.649Z,97033.48
2019-03-31T12:11:50.963Z,97033.79
2019-03-31T12:12:56.079Z,97028.66
2019-03-31T12:13:59.732Z,97030.27
2019-03-31T12:15:03.436Z,97026.67
2019-03-31T12:16:08.747Z,97024.99
2019-03-31T12:17:12.398Z,97020.63
2019-03-31T12:18:38.108Z,97019.62
2019-03-31T12:19:41.801Z,97013.25
2019-03-31T12:20:47.028Z,97013.61
2019-03-31T12:21:53.694Z,97015.24
2019-03-31T12:23:00.242Z,97011.69
2019-03-31T12:24:04.419Z,97008.13
2019-03-31T12:25:08.938Z,97010.45
2019-03-31T12:26:12.556Z,97007.30
2019-03-31T12:27:16.205Z,97006.53
2019-03-31T12:28:22.936Z,97003.19
2019-03-31T12:29:26.540Z,96997.01
2019-03-31T12:30:30.392Z,96994.13
2019-03-31T12:31:34.396Z,96990.47
2019-03-31T12:32:41.830Z,96987.73
2019-03-31T12:33:45.521Z,96990.73
2019-03-31T12:34:49.252Z,96988.20
2019-03-31T12:35:52.978Z,96983.72